createdAt,value
2018-05-21T00:05:50.640Z,11.89
2018-05-21T00:15:50.728Z,11.68
2018-05-21T00:25:50.695Z,11.56
2018-05-21T00:35:50.614Z,11.54
2018-05-21T00:45:50.619Z,11.57
2018-05-21T00:55:50.617Z,11.75
2018-05-21T01:05:50.603Z,12.15
2018-05-21T01:15:50.620Z,12.26
2018-05-21T01:25:50.698Z,12.24
2018-05-21T01:35:50.626Z,12.09
2018-05-21T01:45:50.628Z,11.64
2018-05-21T01:55:50.607Z,11.56
2018-05-21T02:05:50.616Z,11.64
2018-05-21T02:15:50.600Z,11.74
2018-05-21T02:25:50.598Z,11.61
2018-05-21T02:35:50.613Z,11.52
2018-05-21T02:45:50.592Z,11.77
2018-05-21T02:55:50.625Z,11.78
2018-05-21T03:05:50.603Z,12.12
2018-05-21T03:15:50.631Z,12.42
2018-05-21T03:25:50.599Z,12.49
2018-05-21T03:35:50.589Z,12.48
2018-05-21T03:45:50.585Z,12.49
2018-05-21T03:55:50.572Z,12.34
2018-05-21T04:05:50.620Z,12.46
2018-05-21T04:15:50.612Z,12.69
2018-05-21T04:25:50.627Z,12.79
2018-05-21T04:35:50.603Z,13.44
2018-05-21T04:45:50.592Z,13.89
2018-05-21T04:55:50.633Z,14.35
2018-05-21T05:05:50.604Z,14.74
2018-05-21T05:15:50.617Z,15.08
2018-05-21T05:25:50.572Z,15.42
2018-05-21T05:35:50.639Z,15.75
2018-05-21T05:45:50.608Z,16.25
2018-05-21T05:55:50.581Z,16.7
2018-05-21T06:05:50.608Z,17.15
2018-05-21T06:15:50.626Z,18.04
2018-05-21T06:25:50.649Z,21.29
2018-05-21T06:35:50.627Z,24.42
2018-05-21T06:45:50.633Z,27.89
2018-05-21T06:55:50.599Z,29.13
2018-05-21T07:05:50.622Z,30.16
2018-05-21T07:15:50.624Z,31.7
2018-05-21T07:25:50.637Z,32
2018-05-21T07:35:50.607Z,31.57
2018-05-21T07:45:50.649Z,31.76
2018-05-21T07:55:50.665Z,32.69
2018-05-21T08:05:50.649Z,33.71
2018-05-21T08:15:50.670Z,35.29
2018-05-21T08:25:50.705Z,34.16
2018-05-21T08:35:50.653Z,34.58
2018-05-21T08:45:51.402Z,34.81
2018-05-21T08:55:50.710Z,33.85
2018-05-21T09:05:50.712Z,29.9
2018-05-21T09:15:50.698Z,26.05
2018-05-21T09:25:50.682Z,24.63
2018-05-21T09:35:50.744Z,24.23
2018-05-21T09:45:50.676Z,24.35
2018-05-21T09:55:50.708Z,24.57
2018-05-21T10:05:50.693Z,24.75
2018-05-21T10:15:50.702Z,24.67
2018-05-21T10:25:50.736Z,24.69
2018-05-21T10:35:50.674Z,24.38
2018-05-21T10:45:50.665Z,24.44
2018-05-21T10:55:50.722Z,24.5
2018-05-21T11:05:50.707Z,24.94
2018-05-21T11:15:50.811Z,24.75
2018-05-21T11:25:50.831Z,24.69
2018-05-21T11:35:50.721Z,24.76
2018-05-21T11:45:50.741Z,24.91
2018-05-21T11:55:50.759Z,25.06
2018-05-21T12:05:50.748Z,25.09
2018-05-21T12:15:50.734Z,25.28
2018-05-21T12:25:56.210Z,25.38
2018-05-21T12:35:50.808Z,25.17
2018-05-21T12:45:51.019Z,25.13
2018-05-21T12:55:50.703Z,25.3
2018-05-21T13:05:50.726Z,25.47
2018-05-21T13:15:50.703Z,25.43
2018-05-21T13:25:50.724Z,25.42
2018-05-21T13:35:50.770Z,25.57
2018-05-21T13:45:50.883Z,25.54
2018-05-21T13:55:50.786Z,25.59
2018-05-21T14:05:50.767Z,25.62
2018-05-21T14:15:50.752Z,25.65
2018-05-21T14:25:50.743Z,25.71
2018-05-21T14:35:50.924Z,25.99
2018-05-21T14:45:50.746Z,26.04
2018-05-21T14:55:50.771Z,25.91
2018-05-21T15:05:51.091Z,26.01
2018-05-21T15:15:50.936Z,26.12
2018-05-21T15:25:50.895Z,25.86
2018-05-21T15:35:50.916Z,26.05
2018-05-21T15:45:51.187Z,25.99
2018-05-21T15:55:51.796Z,25.91
2018-05-21T16:05:50.819Z,25.84
2018-05-21T16:15:50.836Z,25.62
2018-05-21T16:25:50.836Z,25.47
2018-05-21T16:35:50.778Z,25.47
2018-05-21T16:45:50.785Z,25.42
2018-05-21T16:55:50.925Z,25.22
2018-05-21T17:05:50.813Z,25.09
2018-05-21T17:15:51.010Z,24.97
2018-05-21T17:25:50.781Z,24.79
2018-05-21T17:35:50.853Z,24.59
2018-05-21T17:45:50.779Z,24.32
2018-05-21T17:55:51.667Z,24
2018-05-21T18:05:51.084Z,23.72
2018-05-21T18:15:50.797Z,23.38
2018-05-21T18:25:50.918Z,23.19
2018-05-21T18:35:50.778Z,22.72
2018-05-21T18:45:50.894Z,22.71
2018-05-21T18:55:50.814Z,22.12
2018-05-21T19:05:50.854Z,21.63
2018-05-21T19:15:50.839Z,21.11
2018-05-21T19:25:50.818Z,20.65
2018-05-21T19:35:50.820Z,20.24
2018-05-21T19:45:50.814Z,20.25
2018-05-21T19:55:50.969Z,20.05
2018-05-21T20:05:50.823Z,19.73
2018-05-21T20:15:50.787Z,19.76
2018-05-21T20:25:51.106Z,19.54
2018-05-21T20:35:50.846Z,19.6
2018-05-21T20:45:50.838Z,19.4
2018-05-21T20:55:51.059Z,19.18
2018-05-21T21:05:50.832Z,18.92
2018-05-21T21:15:51.135Z,18.87
2018-05-21T21:25:51.502Z,18.98
2018-05-21T21:35:51.161Z,18.9
2018-05-21T21:45:51.031Z,18.83
2018-05-21T21:55:50.923Z,18.76
2018-05-21T22:05:50.795Z,18.7
2018-05-21T22:15:51.439Z,18.67
2018-05-21T22:25:50.804Z,18.37
2018-05-21T22:35:50.839Z,18.25
2018-05-21T22:45:50.818Z,18.12
2018-05-21T22:55:50.840Z,18.03
2018-05-21T23:05:50.826Z,17.88
2018-05-21T23:15:50.835Z,17.66
2018-05-21T23:25:50.844Z,17.13
2018-05-21T23:35:50.781Z,16.8
2018-05-21T23:45:50.779Z,16.55
2018-05-21T23:55:50.852Z,16.44
